Cleveland, OH (44139)

10:17 AM EDT on August 31, 2015 (GMT -0400)
Moreland Hills | | Change Station
CLOSE
Current Station
Personal Weather Station
Location: Moreland Hills, OH
Elevation: 1096 ft
Nearby Weather Stations

Elev 1096 ft 41.44 °N, 81.44 °W | Updated 2 seconds ago

Clear
Clear
73.6 °F
Feels Like 71 °F
N
0.0
Wind Variable Wind from SE
Gusts 1.0 mph

Today
High -- | Low -- °F
--% Chance of Precip.
Yesterday
High -- | Low -- °F
Precip. -- in
6:50 AM 8:00 PM
Waning Gibbous, 95% visible
Pressure 30.11 in
Visibility 6.0 miles
Clouds Few 20000 ft
Heat Index 71 °F
Dew Point 71 °F
Humidity 91%
Rainfall 0.00 in
Snow Depth Not available.
UV 3 out of 12
Pollen 11.20 out of 12
Air Quality Not available.
Flu Activity Not available.
METAR KCGF 311345Z 30008KT 6SM HZ FEW200 25/21 A3011
Pressure 30.11 in
Visibility 6.0 miles
Clouds Few 20000 ft
Heat Index 71 °F
Dew Point 71 °F
Humidity 91%
Rainfall 0.00 in
Snow Depth Not available.
UV 3 out of 12
Pollen 11.20 out of 12
Air Quality Not available.
Flu Activity Not available.
METAR KCGF 311345Z 30008KT 6SM HZ FEW200 25/21 A3011

10-Day Weather Forecast

×

Almanac

Astronomy

Aug. 31, 2015 Rise Set
Actual Time
Civil Twilight
Nautical Twilight
Astronomical Twilight
Moon
Length of Visible Light
Length of Day
Tomorrow will be .
, % of the Moon is Illuminated

Today's Extremes

State Highs State Lows

Community

WunderPhotos

Upload Photos

1,851,244 photos uploaded!

WunderBlogs® & News

Nearby

Air Quality

  Air Quality AQ Index Pollutant
Not available.

Snow Depth

Station Depth Elevation

Earthquake Activity

City Distance Mag. Time & Date
Minimum magnitude displayed is 2.5.

Coastal Water Temperatures

Place Temperature

Stations

Nearby Weather Stations

Station Location Temp. Windchill Dew Point Humidity Wind Precip. Elev Updated Type